DEKCM EDLW-EDLW

Flight info

Callsign DEKCM
Flight time 0h 25m
Altitude
Route EDLW/06
Aircraft DA40

Departure

Time 2026-05-06 17:06
Airport Dortmund Airport (EDLW)

Arrival

Time 2026-05-06 17:31
Airport Dortmund Airport (EDLW)
Time Latitude Longitude Altitude Speed Heading
2026-05-06 17:04 51.52374 7.61941 760 ft 73 kts 319°
2026-05-06 17:04 51.52362 7.61176 918 ft 83 kts 249°
2026-05-06 17:05 51.52122 7.60217 954 ft 93 kts 245°
2026-05-06 17:05 51.51859 7.59286 809 ft 104 kts 233°
2026-05-06 17:05 51.51307 7.59604 652 ft 128 kts 84°
2026-05-06 17:05 51.51747 7.60968 425 ft 141 kts 60°
2026-05-06 17:06 51.52235 7.61951 1064 ft 80 kts 18°
2026-05-06 17:06 51.52621 7.61448 1261 ft 85 kts 269°
2026-05-06 17:06 51.52394 7.60545 1316 ft 83 kts 242°
2026-05-06 17:06 51.52130 7.59746 1246 ft 82 kts 242°
2026-05-06 17:07 51.51844 7.58954 1147 ft 83 kts 220°
2026-05-06 17:07 51.51307 7.58860 948 ft 82 kts 159°
2026-05-06 17:07 51.51276 7.59626 644 ft 86 kts 59°
2026-05-06 17:07 51.51567 7.60449 426 ft 81 kts 60°
2026-05-06 17:08 51.51824 7.61176 417 ft 75 kts 60°
2026-05-06 17:08 51.52202 7.61741 646 ft 78 kts
2026-05-06 17:08 51.52551 7.61251 861 ft 77 kts 261°
2026-05-06 17:08 51.52326 7.60406 1026 ft 88 kts 243°
2026-05-06 17:09 51.52075 7.59611 999 ft 76 kts 241°
2026-05-06 17:09 51.51815 7.58842 974 ft 79 kts 242°
2026-05-06 17:09 51.51419 7.58268 882 ft 78 kts 184°
2026-05-06 17:09 51.50994 7.58675 699 ft 79 kts 104°
2026-05-06 17:10 51.51212 7.59449 567 ft 77 kts 58°
2026-05-06 17:10 51.51458 7.60144 472 ft 68 kts 61°
2026-05-06 17:10 51.51703 7.60846 421 ft 71 kts 60°
2026-05-06 17:10 51.51934 7.61501 417 ft 75 kts 59°
2026-05-06 17:11 51.52338 7.61937 660 ft 74 kts 349°
2026-05-06 17:11 51.52675 7.61374 861 ft 76 kts 266°
2026-05-06 17:11 51.52428 7.60537 985 ft 93 kts 242°
2026-05-06 17:11 51.52128 7.59692 939 ft 79 kts 239°
2026-05-06 17:12 51.51836 7.58913 904 ft 77 kts 239°
2026-05-06 17:12 51.51859 7.58222 984 ft 74 kts 346°
2026-05-06 17:12 51.51923 7.58677 980 ft 74 kts 184°
2026-05-06 17:12 51.51973 7.58187 922 ft 77 kts 20°
2026-05-06 17:13 51.51865 7.58691 856 ft 73 kts 199°
2026-05-06 17:13 51.51908 7.58124 923 ft 72 kts
2026-05-06 17:13 51.51904 7.58585 987 ft 70 kts 195°
2026-05-06 17:13 51.52028 7.58179 1022 ft 76 kts 33°
2026-05-06 17:14 51.51881 7.58666 999 ft 69 kts 206°
2026-05-06 17:14 51.51999 7.58164 1041 ft 73 kts 19°
2026-05-06 17:14 51.51936 7.58758 1035 ft 73 kts 182°
2026-05-06 17:14 51.51496 7.58347 869 ft 79 kts 175°
2026-05-06 17:15 51.51073 7.58858 697 ft 76 kts 107°
2026-05-06 17:15 51.51268 7.59608 572 ft 75 kts 60°
2026-05-06 17:15 51.51520 7.60325 455 ft 73 kts 60°
2026-05-06 17:15 51.51756 7.60991 418 ft 63 kts 60°
2026-05-06 17:16 51.51986 7.61642 461 ft 78 kts 60°
2026-05-06 17:16 51.52259 7.62396 691 ft 78 kts 56°
2026-05-06 17:16 51.52708 7.62563 946 ft 73 kts 317°
2026-05-06 17:16 51.52739 7.61762 1090 ft 83 kts 246°
2026-05-06 17:17 51.52488 7.60942 991 ft 77 kts 244°
2026-05-06 17:17 51.52251 7.60164 950 ft 82 kts 244°
2026-05-06 17:17 51.52002 7.59358 982 ft 80 kts 241°
2026-05-06 17:17 51.51713 7.58590 982 ft 82 kts 233°
2026-05-06 17:18 51.51186 7.58442 933 ft 100 kts 141°
2026-05-06 17:18 51.51275 7.59625 597 ft 139 kts 59°
2026-05-06 17:18 51.51772 7.61033 419 ft 145 kts 60°
2026-05-06 17:18 51.52221 7.62393 680 ft 104 kts 77°
2026-05-06 17:19 51.51968 7.63143 1229 ft 82 kts 163°
2026-05-06 17:19 51.51485 7.62731 1374 ft 94 kts 239°
2026-05-06 17:19 51.51188 7.61804 1247 ft 88 kts 244°
2026-05-06 17:19 51.50927 7.60904 1134 ft 94 kts 246°
2026-05-06 17:20 51.50661 7.59977 1040 ft 89 kts 244°
2026-05-06 17:20 51.50412 7.59118 933 ft 81 kts 247°
2026-05-06 17:20 51.50212 7.58231 981 ft 83 kts 267°
2026-05-06 17:20 51.50583 7.57598 904 ft 84 kts 343°
2026-05-06 17:21 51.50856 7.58149 806 ft 76 kts 75°
2026-05-06 17:21 51.51069 7.59025 644 ft 85 kts 64°
2026-05-06 17:21 51.51343 7.59815 493 ft 76 kts 60°
2026-05-06 17:21 51.51593 7.60533 421 ft 72 kts 61°
2026-05-06 17:22 51.51825 7.61193 414 ft 65 kts 60°
2026-05-06 17:22 51.52071 7.61919 567 ft 77 kts 62°
2026-05-06 17:22 51.52394 7.62544 828 ft 72 kts 15°
2026-05-06 17:22 51.52798 7.62203 1036 ft 75 kts 288°
2026-05-06 17:23 51.52637 7.61355 1144 ft 90 kts 244°
2026-05-06 17:23 51.52371 7.60500 1122 ft 78 kts 242°
2026-05-06 17:23 51.52133 7.59721 954 ft 83 kts 243°
2026-05-06 17:23 51.51689 7.58885 886 ft 111 kts 191°
2026-05-06 17:24 51.51314 7.59760 631 ft 137 kts 62°
2026-05-06 17:24 51.51817 7.61161 425 ft 145 kts 60°
2026-05-06 17:24 51.52295 7.62271 1044 ft 75 kts 26°
2026-05-06 17:24 51.52790 7.61964 1192 ft 94 kts 295°
2026-05-06 17:25 51.52638 7.61006 1219 ft 88 kts 243°
2026-05-06 17:25 51.52343 7.60190 1081 ft 86 kts 240°
2026-05-06 17:25 51.52029 7.59408 944 ft 81 kts 233°
2026-05-06 17:25 51.51574 7.59031 786 ft 75 kts 163°
2026-05-06 17:26 51.51268 7.59594 631 ft 73 kts 71°
2026-05-06 17:26 51.51522 7.60329 449 ft 75 kts 60°
2026-05-06 17:26 51.51758 7.60995 418 ft 63 kts 60°
2026-05-06 17:26 51.52055 7.61537 521 ft 73 kts 22°
2026-05-06 17:27 51.52494 7.61321 728 ft 73 kts 291°
2026-05-06 17:27 51.52312 7.60586 873 ft 72 kts 236°
2026-05-06 17:27 51.52044 7.59903 825 ft 76 kts 240°
2026-05-06 17:27 51.52231 7.59377 890 ft 72 kts 26°
2026-05-06 17:28 51.52114 7.59949 905 ft 81 kts 184°
2026-05-06 17:28 51.52065 7.59368 909 ft 75 kts 347°
2026-05-06 17:28 51.52157 7.59865 922 ft 74 kts 172°
2026-05-06 17:28 51.52155 7.59380 914 ft 73 kts
2026-05-06 17:29 51.52207 7.59995 907 ft 75 kts 162°
2026-05-06 17:29 51.52007 7.59504 914 ft 74 kts 322°
2026-05-06 17:29 51.52262 7.59890 931 ft 75 kts 136°
2026-05-06 17:29 51.51843 7.59583 793 ft 78 kts 228°
2026-05-06 17:30 51.51404 7.59318 680 ft 69 kts 144°
2026-05-06 17:30 51.51426 7.60056 502 ft 80 kts 59°
2026-05-06 17:30 51.51682 7.60787 418 ft 69 kts 60°
2026-05-06 17:30 51.51895 7.61410 412 ft 56 kts 61°
2026-05-06 17:31 51.52040 7.61828 407 ft 37 kts 61°
2026-05-06 17:31 51.52150 7.62138 405 ft 32 kts 60°
2026-05-06 17:31 51.52180 7.62332 405 ft 14 kts 155°
2026-05-06 17:31 51.52142 7.62352 405 ft 0 kts 150°
2026-05-06 17:32 51.52139 7.62355 405 ft 5 kts 152°
2026-05-06 17:32 51.52057 7.62394 404 ft 17 kts 209°
2026-05-06 17:32 51.51995 7.62228 407 ft 18 kts 241°
2026-05-06 17:32 51.51932 7.62049 408 ft 19 kts 240°
2026-05-06 17:33 51.51868 7.61866 411 ft 18 kts 241°
2026-05-06 17:33 51.51804 7.61683 413 ft 19 kts 240°
2026-05-06 17:33 51.51744 7.61510 416 ft 17 kts 240°
2026-05-06 17:33 51.51686 7.61350 416 ft 16 kts 240°
2026-05-06 17:34 51.51631 7.61194 420 ft 16 kts 241°
2026-05-06 17:34 51.51567 7.61051 424 ft 14 kts 195°
2026-05-06 17:34 51.51496 7.61014 426 ft 12 kts 239°
2026-05-06 17:34 51.51451 7.60887 424 ft 15 kts 241°
2026-05-06 17:35 51.51399 7.60739 435 ft 16 kts 241°
2026-05-06 17:35 51.51340 7.60569 437 ft 20 kts 242°
2026-05-06 17:35 51.51271 7.60376 440 ft 16 kts 240°
2026-05-06 17:36 51.51173 7.60161 452 ft 9 kts 171°
2026-05-06 17:36 51.51170 7.60249 455 ft 14 kts 48°
2026-05-06 17:36 51.51233 7.60402 451 ft 17 kts 61°
2026-05-06 17:36 51.51268 7.60502 451 ft 14 kts 60°
2026-05-06 17:37 51.51278 7.60598 455 ft 4 kts 146°
2026-05-06 17:37 51.51277 7.60600 455 ft 0 kts 146°
2026-05-06 17:40 51.51268 7.60555 454 ft 16 kts 271°
2026-05-06 17:41 51.51219 7.60363 451 ft 18 kts 242°
2026-05-06 17:41 51.51169 7.60249 455 ft 6 kts 232°
2026-05-06 17:41 51.51159 7.60164 454 ft 8 kts 319°
2026-05-06 17:41 51.51224 7.60241 445 ft 17 kts 61°
2026-05-06 17:42 51.51285 7.60415 437 ft 18 kts 60°
2026-05-06 17:42 51.51352 7.60602 438 ft 18 kts 59°
2026-05-06 17:42 51.51415 7.60785 429 ft 21 kts 61°
2026-05-06 17:42 51.51485 7.60982 429 ft 18 kts 60°
2026-05-06 17:43 51.51541 7.61060 426 ft 11 kts 346°
2026-05-06 17:43 51.51566 7.60938 419 ft 15 kts 255°
2026-05-06 17:43 51.51535 7.60758 418 ft 19 kts 255°
2026-05-06 17:43 51.51527 7.60685 416 ft 0 kts 280°
2026-05-06 17:45 51.51527 7.60684 416 ft 1 kts 281°
2026-05-06 17:45 51.51527 7.60682 416 ft 0 kts 281°
2026-05-06 17:46 51.51528 7.60681 416 ft 2 kts 281°
2026-05-06 17:46 51.51579 7.60608 415 ft 12 kts 352°
2026-05-06 17:46 51.51628 7.60643 416 ft 0 kts 60°
2026-05-06 17:47 51.51649 7.60702 417 ft 28 kts 60°
2026-05-06 17:47 51.51848 7.61260 446 ft 78 kts 60°
2026-05-06 17:47 51.52202 7.61863 712 ft 72 kts 11°
2026-05-06 17:47 51.52553 7.61431 893 ft 77 kts 260°
2026-05-06 17:48 51.52308 7.60627 1056 ft 84 kts 241°
2026-05-06 17:48 51.52241 7.59841 1118 ft 77 kts 327°
2026-05-06 17:48 51.52489 7.60242 1068 ft 74 kts 134°
2026-05-06 17:48 51.52174 7.59920 994 ft 74 kts 288°
2026-05-06 17:49 51.52547 7.59890 977 ft 73 kts 79°
2026-05-06 17:49 51.52236 7.60071 993 ft 73 kts 252°
2026-05-06 17:49 51.52556 7.59889 1024 ft 75 kts 71°
2026-05-06 17:49 51.52246 7.60200 991 ft 73 kts 226°
2026-05-06 17:50 51.52407 7.59654 964 ft 71 kts 12°
2026-05-06 17:50 51.52425 7.60230 909 ft 73 kts 169°
2026-05-06 17:50 51.52304 7.59703 899 ft 73 kts 333°
2026-05-06 17:50 51.52584 7.60134 938 ft 75 kts 117°
2026-05-06 17:51 51.52213 7.60033 1006 ft 73 kts 274°
2026-05-06 17:51 51.52578 7.59931 1034 ft 75 kts 73°
2026-05-06 17:51 51.52273 7.60058 1011 ft 81 kts 269°
2026-05-06 17:51 51.52629 7.60052 1058 ft 78 kts 86°
2026-05-06 17:52 51.52236 7.60255 1057 ft 83 kts 235°
2026-05-06 17:52 51.51957 7.59450 1063 ft 79 kts 239°
2026-05-06 17:52 51.51644 7.58773 999 ft 75 kts 229°
2026-05-06 17:52 51.51192 7.58493 908 ft 74 kts 150°
2026-05-06 17:53 51.51135 7.59250 713 ft 82 kts 57°
2026-05-06 17:53 51.51416 7.60019 535 ft 78 kts 60°
2026-05-06 17:53 51.51668 7.60739 421 ft 69 kts 60°
2026-05-06 17:53 51.51897 7.61392 431 ft 78 kts 60°
2026-05-06 17:54 51.52154 7.62136 716 ft 73 kts 66°
2026-05-06 17:54 51.52444 7.62778 941 ft 75 kts 21°
2026-05-06 17:54 51.52917 7.62404 1064 ft 91 kts 296°
2026-05-06 17:54 51.52814 7.61363 1096 ft 95 kts 242°
2026-05-06 17:55 51.52532 7.60499 1023 ft 84 kts 242°
2026-05-06 17:55 51.52219 7.59697 965 ft 87 kts 235°
2026-05-06 17:55 51.51866 7.58901 920 ft 88 kts 231°
2026-05-06 17:55 51.51327 7.58710 848 ft 88 kts 153°
2026-05-06 17:56 51.51216 7.59466 657 ft 83 kts 58°
2026-05-06 17:56 51.51492 7.60239 479 ft 77 kts 60°
2026-05-06 17:56 51.51693 7.60812 419 ft 68 kts 60°